Roundup, MT (59073)

5:34 AM MDT on September 17, 2014 (GMT -0600)
RAWS HORSE THIEF MT US | Change Station
CLOSE
Current Station
Personal Weather Station
Location: Roundup, MT
Elevation: 3479 ft
Nearby Weather Stations

Elev 3479 ft 46.43 °N, 108.67 °W | Updated 55 minutes ago

Mostly Cloudy
Mostly Cloudy
51 °F
Feels Like 51 °F
N
3
Wind Variable Wind from West
Gusts 8.0 mph

Today
High -- | Low -- °F
--% Chance of Precip.
Yesterday
High -- | Low -- °F
Precip. -- in
6:54 AM 7:21 PM
Last Quarter, 37% visible
Pressure 29.84 in
Visibility 10.0 miles
Clouds Scattered Clouds 16000 ft
Mostly Cloudy 20000 ft
Dew Point 47 °F
Humidity 85%
Rainfall 0.00 in
Snow Depth 0 in , 0 in , 1 in
UV 0 out of 12
Pollen 6.00 out of 12
Air Quality Not available.
Flu Activity Not available.
METAR KBIL 171053Z 23008KT 10SM SCT160 BKN200 15/07 A2993 RMK AO2 SLP103 T01500067

More Conditions Fewer Conditions

Pressure 29.84 in
Visibility 10.0 miles
Clouds Scattered Clouds 16000 ft
Mostly Cloudy 20000 ft
Dew Point 47 °F
Humidity 85%
Rainfall 0.00 in
Snow Depth 0 in , 0 in , 1 in
UV 0 out of 12
Pollen 6.00 out of 12
Air Quality Not available.
Flu Activity Not available.
METAR KBIL 171053Z 23008KT 10SM SCT160 BKN200 15/07 A2993 RMK AO2 SLP103 T01500067

More Conditions Fewer Conditions

10-Day Weather Forecast

Almanac

Astronomy

Sep. 17, 2014 Rise Set
Actual Time 6:54 AM MDT 7:21 PM MDT
Civil Twilight 6:24 AM MDT 7:51 PM MDT
Nautical Twilight 5:48 AM MDT 8:27 PM MDT
Astronomical Twilight 5:11 AM MDT 9:04 PM MDT
Moon 12:42 AM MDT 3:47 PM MDT
Length of Visible Light 13h 27m
Length of Day
12h 26m
Tomorrow will be 3m 16s shorter.
Last Quarter, 37% of the Moon is Illuminated
Today
Last Quarter
Sep 24
New
Oct 1
First Quarter
Oct 8
Full
Oct 15
Last Quarter

Today's Extremes

State Highs State Lows

Community

WunderPhotos

Upload Photos

1,754,003 photos uploaded!

Nearby

Snow Depth

Station Depth Elevation
Onion Park 0 in 7410 ft
Barker Lakes 0 in 8250 ft
Crystal Lake 1 in 6050 ft
Kraft Creek 0 in 4750 ft
West Yellowstone 0 in 6700 ft

Earthquake Activity

City Distance Mag. Time & Date
No recent earthquake activity has been reported nearby.
Minimum magnitude displayed is 2.5.

Coastal Water Temperatures

Place Temperature
No Stations Reporting

Nearby Weather Stations